Time;durP1;ratioP1;P1;durP2;ratioP2;P2;SDS_P1;SDS_P2;PMS_P1;PMS_P2;Temp;Humidity;BMP_temperature;BMP_pressure;BME280_temperature;BME280_humidity;BME280_pressure;Samples;Min_cycle;Max_cycle;Signal;HPM_P1;HPM_P2
2021/08/08 00:01:46;;;;;;;0.70;0.70;;;;;;;23.19;48.38;98788.09;4972475;28;20223;-88
2021/08/08 00:04:13;;;;;;;1.77;0.80;;;;;;;23.21;48.31;98791.31;4971545;28;20292;-87
2021/08/08 00:06:40;;;;;;;0.90;0.77;;;;;;;23.16;48.25;98800.47;4972283;28;20258;-87
2021/08/08 00:09:07;;;;;;;0.70;0.70;;;;;;;23.25;47.57;98805.94;4956541;28;20655;-87
2021/08/08 00:11:34;;;;;;;2.03;0.63;;;;;;;23.28;47.84;98811.56;4956202;29;20230;-87
2021/08/08 00:14:01;;;;;;;0.60;0.60;;;;;;;23.03;48.43;98804.19;4955296;29;20235;-85
2021/08/08 00:16:29;;;;;;;0.60;0.60;;;;;;;23.18;48.39;98813.84;4955619;28;20240;-87
2021/08/08 00:18:56;;;;;;;0.80;0.60;;;;;;;23.25;48.79;98822.34;4955549;28;20239;-87
2021/08/08 00:21:23;;;;;;;1.73;0.60;;;;;;;23.10;48.77;98825.53;4955967;28;20233;-87
2021/08/08 00:23:50;;;;;;;1.53;0.63;;;;;;;23.16;48.81;98824.28;4955627;28;20240;-87
2021/08/08 00:26:16;;;;;;;0.60;0.60;;;;;;;23.05;48.99;98817.53;4955500;28;20294;-87
2021/08/08 00:28:45;;;;;;;0.63;0.60;;;;;;;23.09;49.04;98818.50;4956019;28;20589;-87
2021/08/08 00:31:13;;;;;;;0.53;0.50;;;;;;;23.08;48.36;98830.53;4954499;28;20251;-87
2021/08/08 00:33:40;;;;;;;0.60;0.60;;;;;;;23.14;47.99;98842.94;4939250;28;20271;-87
2021/08/08 00:36:07;;;;;;;0.80;0.70;;;;;;;23.10;48.41;98825.53;4970102;28;20711;-86
2021/08/08 00:38:35;;;;;;;1.03;0.60;;;;;;;23.15;47.99;98836.31;4955656;29;20234;-86
2021/08/08 00:41:03;;;;;;;0.67;0.43;;;;;;;23.15;47.71;98828.13;4924564;29;20282;-86
2021/08/08 00:43:31;;;;;;;0.73;0.57;;;;;;;23.24;47.83;98842.59;4955570;28;20233;-86
2021/08/08 00:45:59;;;;;;;0.60;0.60;;;;;;;23.12;48.07;98812.38;4939997;29;20661;-86
2021/08/08 00:48:25;;;;;;;0.57;0.50;;;;;;;23.20;47.88;98833.44;4914868;29;20258;-86
2021/08/08 00:50:52;;;;;;;0.73;0.60;;;;;;;23.31;47.77;98861.25;4955842;28;20591;-86
2021/08/08 00:53:30;;;;;;;0.70;0.60;;;;;;;23.33;47.30;98853.53;4925568;29;20259;-86
2021/08/08 00:56:00;;;;;;;1.33;0.60;;;;;;;23.32;47.49;98854.66;4955505;28;20235;-85
2021/08/08 00:58:29;;;;;;;0.87;0.60;;;;;;;23.25;47.34;98836.00;4956159;28;20289;-86
2021/08/08 01:01:02;;;;;;;0.53;0.53;;;;;;;23.33;47.61;98846.13;4956381;28;20298;-85
2021/08/08 01:03:30;;;;;;;0.60;0.60;;;;;;;23.27;47.88;98850.16;4939930;29;20246;-86
2021/08/08 01:06:10;;;;;;;0.67;0.60;;;;;;;23.34;48.06;98868.78;4954339;29;20352;-86
2021/08/08 01:08:43;;;;;;;1.37;0.70;;;;;;;23.34;47.99;98869.59;4955427;28;20595;-86
2021/08/08 01:11:10;;;;;;;1.23;0.60;;;;;;;23.29;48.14;98858.81;4955265;29;20241;-86
2021/08/08 01:13:38;;;;;;;1.23;0.70;;;;;;;23.31;47.89;98856.59;4940110;28;20232;-86
2021/08/08 01:16:05;;;;;;;0.73;0.73;;;;;;;23.22;48.98;98850.31;4939046;29;20237;-86
2021/08/08 01:18:32;;;;;;;1.87;0.70;;;;;;;23.19;49.25;98835.34;4955524;28;20251;-87
2021/08/08 01:21:01;;;;;;;1.67;0.80;;;;;;;23.23;49.91;98830.06;4924099;29;20249;-87
2021/08/08 01:23:31;;;;;;;0.50;0.50;;;;;;;23.16;50.97;98849.66;4955495;28;20229;-86
2021/08/08 01:25:58;;;;;;;1.03;0.70;;;;;;;23.09;51.62;98854.81;4954800;28;20253;-86
2021/08/08 01:28:24;;;;;;;0.70;0.70;;;;;;;23.04;51.60;98857.72;4954963;28;20245;-85
2021/08/08 01:30:52;;;;;;;0.60;0.60;;;;;;;22.83;52.32;98852.03;4955453;28;20232;-86
2021/08/08 01:33:19;;;;;;;1.30;0.90;;;;;;;22.91;52.54;98872.28;4955639;28;20291;-86
2021/08/08 01:35:58;;;;;;;0.60;0.60;;;;;;;22.80;52.79;98869.06;4955231;28;20230;-87
2021/08/08 01:38:28;;;;;;;0.70;0.70;;;;;;;22.68;53.97;98871.56;4958580;29;20331;-86
2021/08/08 01:41:02;;;;;;;0.67;0.67;;;;;;;22.71;54.04;98865.50;4927265;29;20232;-87
2021/08/08 01:43:37;;;;;;;0.80;0.80;;;;;;;22.67;54.43;98880.91;4990373;28;20235;-87
2021/08/08 01:46:06;;;;;;;1.07;0.67;;;;;;;22.63;55.19;98879.13;4927012;29;20232;-86
2021/08/08 01:48:43;;;;;;;0.70;0.70;;;;;;;22.56;55.15;98882.28;4957589;29;20241;-87
2021/08/08 01:51:11;;;;;;;1.23;0.70;;;;;;;22.46;54.67;98881.75;4958720;28;20256;-87
2021/08/08 01:53:39;;;;;;;1.53;0.60;;;;;;;22.50;54.28;98894.47;4958733;29;20237;-87
2021/08/08 01:56:06;;;;;;;0.67;0.67;;;;;;;22.54;54.10;98900.91;4958386;29;20227;-87
2021/08/08 01:58:35;;;;;;;0.50;0.50;;;;;;;22.44;54.42;98882.09;4927399;29;20603;-87
2021/08/08 02:01:09;;;;;;;1.57;0.77;;;;;;;22.29;54.34;98866.94;4957634;29;20573;-87
2021/08/08 02:03:37;;;;;;;0.60;0.60;;;;;;;22.29;54.46;98902.41;4958548;28;20235;-87
2021/08/08 02:06:10;;;;;;;0.60;0.60;;;;;;;22.27;53.95;98890.19;4926596;29;20686;-87
2021/08/08 02:08:42;;;;;;;1.73;0.70;;;;;;;22.27;53.75;98890.19;4974633;28;20310;-87
2021/08/08 02:11:14;;;;;;;0.53;0.53;;;;;;;22.17;53.74;98885.81;4959065;28;20279;-87
2021/08/08 02:13:54;;;;;;;0.60;0.60;;;;;;;22.27;52.83;98912.00;4960748;28;20232;-86
2021/08/08 02:16:21;;;;;;;1.60;0.60;;;;;;;22.37;52.54;98881.72;4926420;29;20627;-87
2021/08/08 02:18:49;;;;;;;0.50;0.50;;;;;;;22.34;52.23;98893.28;4911288;29;20572;-87
2021/08/08 02:21:22;;;;;;;0.60;0.60;;;;;;;22.27;51.79;98907.38;4959625;28;20312;-87
2021/08/08 02:23:53;;;;;;;0.50;0.50;;;;;;;22.15;51.97;98890.78;4974344;28;20235;-87
2021/08/08 02:26:23;;;;;;;0.60;0.60;;;;;;;22.37;51.71;98917.22;4926689;29;20253;-87
2021/08/08 02:28:54;;;;;;;0.80;0.60;;;;;;;22.32;51.74;98915.41;4942510;29;20226;-86
2021/08/08 02:31:21;;;;;;;0.60;0.60;;;;;;;22.34;51.62;98929.56;4958396;28;20234;-88
2021/08/08 02:33:48;;;;;;;2.10;0.70;;;;;;;22.38;51.54;98935.19;4958193;28;20663;-88
2021/08/08 02:36:16;;;;;;;0.80;0.60;;;;;;;22.53;51.46;98939.44;4926414;29;20222;-87
2021/08/08 02:38:46;;;;;;;0.70;0.70;;;;;;;22.40;51.20;98917.38;4942486;29;20319;-87
2021/08/08 02:41:13;;;;;;;0.73;0.60;;;;;;;22.48;51.27;98924.00;4955003;28;20565;-87
2021/08/08 02:43:41;;;;;;;0.60;0.60;;;;;;;22.49;51.54;98919.38;4923239;29;20240;-87
2021/08/08 02:46:08;;;;;;;1.27;0.70;;;;;;;22.38;51.86;98925.09;4937962;29;20231;-87
2021/08/08 02:48:35;;;;;;;1.50;0.70;;;;;;;22.26;52.88;98897.56;4970571;28;20232;-87
2021/08/08 02:51:04;;;;;;;2.00;0.70;;;;;;;22.27;53.53;98912.81;4938065;29;20250;-87
2021/08/08 02:53:32;;;;;;;0.83;0.80;;;;;;;22.12;53.87;98902.31;4938898;29;20239;-87
2021/08/08 02:55:59;;;;;;;0.80;0.60;;;;;;;22.33;53.39;98935.34;4923098;29;20237;-87
2021/08/08 02:58:28;;;;;;;0.73;0.70;;;;;;;22.33;53.88;98943.53;4953874;28;20620;-86
2021/08/08 03:00:54;;;;;;;0.70;0.70;;;;;;;22.30;54.13;98947.66;4935244;29;20593;-86
2021/08/08 03:03:21;;;;;;;0.87;0.80;;;;;;;22.37;54.16;98963.59;4937478;29;20233;-87
2021/08/08 03:05:48;;;;;;;1.03;0.70;;;;;;;22.26;54.05;98945.88;4954418;29;20231;-87
2021/08/08 03:08:16;;;;;;;0.70;0.70;;;;;;;22.35;53.75;98949.44;4935799;29;20280;-87
2021/08/08 03:10:43;;;;;;;0.80;0.60;;;;;;;22.28;54.07;98952.63;4935001;29;20660;-86
2021/08/08 03:13:10;;;;;;;0.80;0.77;;;;;;;22.24;53.37;98932.56;4950976;29;20323;-86
2021/08/08 03:15:40;;;;;;;0.60;0.60;;;;;;;22.21;53.34;98924.19;4954584;29;20620;-86
2021/08/08 03:18:07;;;;;;;0.70;0.60;;;;;;;22.22;53.48;98921.13;4937340;29;20240;-86
2021/08/08 03:20:35;;;;;;;0.67;0.67;;;;;;;22.26;53.41;98934.97;4938497;29;20230;-86
2021/08/08 03:23:02;;;;;;;0.50;0.50;;;;;;;22.23;53.72;98950.03;4969882;28;20290;-86
2021/08/08 03:25:29;;;;;;;2.00;1.07;;;;;;;22.16;55.21;98959.78;4969846;28;20557;-86
2021/08/08 03:27:56;;;;;;;0.83;0.83;;;;;;;22.04;56.21;98971.25;4954132;29;20235;-87
2021/08/08 03:30:24;;;;;;;1.00;0.90;;;;;;;21.99;57.27;98960.47;4952900;29;20613;-86
2021/08/08 03:32:51;;;;;;;0.90;0.90;;;;;;;21.87;57.04;98973.84;4953953;29;20231;-87
2021/08/08 03:35:18;;;;;;;1.87;1.00;;;;;;;21.76;57.89;98986.91;4969785;28;20243;-87
2021/08/08 03:37:44;;;;;;;1.73;1.20;;;;;;;21.53;58.27;98987.97;4935775;29;20239;-87
2021/08/08 03:40:12;;;;;;;1.30;1.00;;;;;;;21.29;58.99;98984.69;4946655;29;20229;-87
2021/08/08 03:42:42;;;;;;;1.23;1.10;;;;;;;21.23;59.52;98986.69;4956468;28;20236;-88
2021/08/08 03:45:09;;;;;;;2.53;0.90;;;;;;;21.40;59.02;98995.06;4956811;29;20232;-88
2021/08/08 03:47:37;;;;;;;2.10;0.90;;;;;;;21.32;58.78;99001.22;4956549;28;20225;-87
2021/08/08 03:50:07;;;;;;;0.97;0.97;;;;;;;21.22;58.95;98990.56;4972581;28;20244;-87
2021/08/08 03:52:34;;;;;;;0.90;0.90;;;;;;;21.08;60.08;98985.09;4956536;28;20284;-87
2021/08/08 03:55:00;;;;;;;1.20;1.10;;;;;;;20.80;60.81;98977.22;4972990;28;20653;-88
2021/08/08 03:57:27;;;;;;;0.90;0.90;;;;;;;20.93;59.82;98988.13;4972550;28;20288;-88
2021/08/08 04:00:00;;;;;;;1.43;0.80;;;;;;;21.08;60.24;99001.44;4955539;28;20235;-88
2021/08/08 04:02:28;;;;;;;2.07;0.80;;;;;;;20.99;60.48;99014.16;4924872;29;20249;-87
2021/08/08 04:04:56;;;;;;;1.10;1.00;;;;;;;21.12;60.42;99015.25;4956525;29;20320;-88
2021/08/08 04:07:23;;;;;;;1.57;1.00;;;;;;;21.24;59.80;99012.84;4956269;29;20311;-87
2021/08/08 04:09:49;;;;;;;0.90;0.90;;;;;;;21.33;59.38;99021.91;4956570;28;20240;-88
2021/08/08 04:12:16;;;;;;;1.30;0.90;;;;;;;21.38;59.78;99021.81;4955795;28;20286;-88
2021/08/08 04:14:43;;;;;;;1.00;0.90;;;;;;;21.45;59.59;99027.66;4956232;29;20530;-87
2021/08/08 04:17:11;;;;;;;1.07;0.90;;;;;;;21.42;59.12;99028.25;4956174;29;20315;-87
2021/08/08 04:19:37;;;;;;;1.00;0.80;;;;;;;21.47;59.29;99040.97;4940482;28;20233;-87
2021/08/08 04:22:04;;;;;;;1.00;0.90;;;;;;;21.50;59.29;99045.81;4939928;29;20257;-87
2021/08/08 04:24:31;;;;;;;0.97;0.87;;;;;;;21.52;59.42;99054.50;4940490;29;20387;-87
2021/08/08 04:26:58;;;;;;;1.27;0.97;;;;;;;21.59;59.58;99059.53;4940312;29;20318;-87
2021/08/08 04:29:25;;;;;;;0.77;0.77;;;;;;;21.53;59.97;99054.19;4940400;28;20231;-87
2021/08/08 04:31:52;;;;;;;0.90;0.90;;;;;;;21.52;60.68;99060.75;4955834;28;20253;-87
2021/08/08 04:34:18;;;;;;;1.17;1.07;;;;;;;21.46;61.11;99042.88;4955601;28;20241;-86
2021/08/08 04:36:45;;;;;;;1.77;1.00;;;;;;;21.35;61.21;99057.03;4955939;28;20303;-87
2021/08/08 04:39:12;;;;;;;1.17;1.07;;;;;;;21.13;62.17;99051.47;4940233;29;20293;-87
2021/08/08 04:41:40;;;;;;;1.00;1.00;;;;;;;21.29;61.36;99077.31;4956042;28;20252;-87
2021/08/08 04:44:07;;;;;;;1.57;1.00;;;;;;;21.33;62.24;99084.56;4955516;28;20234;-87
2021/08/08 04:46:34;;;;;;;0.90;0.90;;;;;;;21.36;61.97;99072.28;4956130;29;20647;-87
2021/08/08 04:49:01;;;;;;;0.80;0.80;;;;;;;21.42;61.61;99071.84;4956174;29;20249;-87
2021/08/08 04:51:28;;;;;;;0.90;0.90;;;;;;;21.52;61.86;99103.53;4955724;28;20235;-88
2021/08/08 04:53:55;;;;;;;1.10;1.00;;;;;;;21.44;61.89;99104.25;4955890;28;20320;-86
2021/08/08 04:56:22;;;;;;;2.20;0.93;;;;;;;21.48;61.88;99102.53;4940310;29;20236;-87
2021/08/08 04:58:49;;;;;;;1.97;0.90;;;;;;;21.48;61.52;99106.06;4955753;29;20233;-87
2021/08/08 05:01:15;;;;;;;1.00;0.90;;;;;;;21.49;60.42;99101.44;4955854;28;20580;-87
2021/08/08 05:03:43;;;;;;;2.40;1.20;;;;;;;21.66;60.76;99089.91;4971733;28;20336;-87
2021/08/08 05:06:09;;;;;;;1.30;1.20;;;;;;;21.80;60.54;99086.03;4955177;28;20287;-87
2021/08/08 05:08:36;;;;;;;1.63;0.93;;;;;;;21.83;60.36;99090.09;4924144;29;20233;-86
2021/08/08 05:11:03;;;;;;;1.77;0.90;;;;;;;21.87;59.85;99080.19;4943325;29;20228;-86
2021/08/08 05:13:30;;;;;;;0.80;0.80;;;;;;;21.96;60.23;99092.00;4927847;29;20226;-87
2021/08/08 05:15:59;;;;;;;1.00;0.90;;;;;;;22.19;60.04;99101.84;4944688;28;20236;-86
2021/08/08 05:18:26;;;;;;;1.07;0.97;;;;;;;22.26;59.16;99106.84;4943538;29;20244;-87
2021/08/08 05:20:53;;;;;;;7.83;1.03;;;;;;;22.29;58.71;99109.78;4959880;28;20656;-87
2021/08/08 05:23:20;;;;;;;7.13;1.17;;;;;;;22.35;59.09;99111.28;4943510;29;20633;-87
2021/08/08 05:25:47;;;;;;;3.47;1.10;;;;;;;22.41;58.64;99103.78;4927898;29;20233;-87
2021/08/08 05:28:14;;;;;;;1.00;0.90;;;;;;;22.55;58.59;99100.97;4943426;28;20245;-87
2021/08/08 05:30:40;;;;;;;3.73;1.23;;;;;;;22.73;58.28;99078.16;4927777;29;20679;-86
2021/08/08 05:33:07;;;;;;;12.00;2.40;;;;;;;23.12;57.57;99096.53;4943778;28;20231;-87
2021/08/08 05:35:34;;;;;;;2.30;1.50;;;;;;;23.55;56.94;99104.94;4959162;29;20229;-86
2021/08/08 05:38:01;;;;;;;1.00;0.90;;;;;;;23.89;55.68;99107.72;4991008;28;20225;-86
2021/08/08 05:40:28;;;;;;;0.90;0.90;;;;;;;23.94;54.50;99115.78;4958959;28;20230;-87
2021/08/08 05:42:55;;;;;;;1.23;0.77;;;;;;;23.83;54.37;99111.75;4927714;29;20537;-86
2021/08/08 05:45:22;;;;;;;3.30;1.10;;;;;;;23.79;54.13;99121.72;4959150;28;20231;-86
2021/08/08 05:47:50;;;;;;;1.33;0.80;;;;;;;23.73;54.40;99127.66;4958862;28;20268;-86
2021/08/08 05:50:22;;;;;;;2.70;0.90;;;;;;;23.71;53.50;99144.38;4974618;28;20290;-84
2021/08/08 05:52:51;;;;;;;1.20;1.00;;;;;;;23.57;54.25;99147.22;4927386;29;20313;-86
2021/08/08 05:55:19;;;;;;;3.80;1.43;;;;;;;23.38;55.13;99152.09;4958961;28;20242;-87
2021/08/08 05:57:46;;;;;;;1.40;1.30;;;;;;;23.31;55.65;99145.47;4943002;29;20282;-87
2021/08/08 06:00:15;;;;;;;1.60;1.00;;;;;;;23.28;56.34;99122.34;4958306;28;20319;-88
2021/08/08 06:02:44;;;;;;;1.07;1.00;;;;;;;23.39;56.89;99155.63;4958690;28;20237;-87
2021/08/08 06:05:15;;;;;;;1.23;1.07;;;;;;;23.43;57.01;99162.09;4958562;28;20235;-86
2021/08/08 06:07:41;;;;;;;29.50;3.97;;;;;;;23.46;58.20;99169.72;4958397;28;20242;-88
2021/08/08 06:10:09;;;;;;;1.90;0.90;;;;;;;23.23;58.83;99168.94;4974401;28;20270;-87
2021/08/08 06:12:37;;;;;;;0.80;0.80;;;;;;;23.18;58.17;99174.53;4958892;28;20236;-88
2021/08/08 06:15:04;;;;;;;1.03;0.90;;;;;;;23.03;58.60;99173.00;4942580;29;20257;-87
2021/08/08 06:17:31;;;;;;;1.10;1.00;;;;;;;23.14;58.80;99163.41;4958826;28;20236;-87
2021/08/08 06:19:58;;;;;;;2.57;1.20;;;;;;;23.19;60.13;99151.53;4943349;28;20292;-88
2021/08/08 06:22:25;;;;;;;2.00;1.20;;;;;;;23.86;58.32;99154.06;4957457;28;20251;-91
2021/08/08 06:24:52;;;;;;;1.57;0.87;;;;;;;24.34;57.30;99160.31;4958783;28;20233;-90
2021/08/08 06:27:19;;;;;;;0.70;0.70;;;;;;;24.41;56.08;99148.84;4927226;29;20246;-86
2021/08/08 06:29:47;;;;;;;1.40;1.10;;;;;;;24.64;55.83;99150.28;4990665;28;20255;-90
2021/08/08 06:32:13;;;;;;;1.30;0.80;;;;;;;24.56;55.77;99157.41;4958408;28;20239;-90
2021/08/08 06:34:42;;;;;;;4.63;1.10;;;;;;;24.43;55.73;99152.09;4954553;28;20230;-90
2021/08/08 06:37:09;;;;;;;1.43;0.90;;;;;;;24.27;55.77;99149.00;4974837;28;20226;-90
2021/08/08 06:39:36;;;;;;;1.17;0.87;;;;;;;24.26;56.21;99147.44;4969590;28;20572;-89
2021/08/08 06:42:03;;;;;;;0.97;0.83;;;;;;;24.34;55.93;99146.63;4960961;28;20240;-87
2021/08/08 06:44:35;;;;;;;0.90;0.67;;;;;;;24.41;55.75;99165.28;4978128;28;20278;-90
2021/08/08 06:47:02;;;;;;;0.80;0.80;;;;;;;24.30;56.38;99169.47;4945725;28;20232;-88
2021/08/08 06:49:29;;;;;;;1.00;1.00;;;;;;;24.38;56.27;99146.75;4961362;28;20258;-87
2021/08/08 06:51:56;;;;;;;0.60;0.60;;;;;;;24.47;56.08;99139.34;4977463;28;20239;-87
2021/08/08 06:54:23;;;;;;;0.85;0.80;;;;;;;24.71;55.02;99167.06;4992817;28;20298;-88
2021/08/08 06:56:51;;;;;;;1.35;1.20;;;;;;;24.65;55.33;99170.28;4961203;28;20233;-87
2021/08/08 06:59:17;;;;;;;0.98;0.90;;;;;;;24.73;55.31;99153.03;4993707;28;20576;-88
2021/08/08 07:01:44;;;;;;;1.25;0.93;;;;;;;24.64;55.92;99158.50;4945515;28;20683;-89
2021/08/08 07:04:11;;;;;;;1.02;0.90;;;;;;;24.42;56.94;99151.28;4960502;28;20335;-86
2021/08/08 07:06:38;;;;;;;0.90;0.90;;;;;;;24.47;55.69;99169.47;4974816;28;20239;-88
2021/08/08 07:09:07;;;;;;;1.05;0.95;;;;;;;24.21;55.68;99166.72;4991860;28;20235;-85
2021/08/08 07:11:36;;;;;;;1.60;1.50;;;;;;;23.95;57.01;99161.16;4977165;28;20224;-86
2021/08/08 07:14:07;;;;;;;0.93;0.90;;;;;;;23.83;57.31;99187.53;4961300;28;20227;-88
2021/08/08 07:16:34;;;;;;;1.25;1.15;;;;;;;23.67;58.20;99163.34;4960259;28;20642;-86
2021/08/08 07:19:01;;;;;;;1.75;1.02;;;;;;;23.67;58.56;99174.28;4976387;28;20735;-87
2021/08/08 07:21:28;;;;;;;1.55;1.00;;;;;;;23.57;57.45;99182.78;4944238;28;20254;-88
2021/08/08 07:24:10;;;;;;;0.80;0.80;;;;;;;23.55;57.19;99178.75;4978281;28;20228;-89
2021/08/08 07:26:37;;;;;;;0.80;0.80;;;;;;;23.50;57.74;99185.16;4960821;28;20294;-88
2021/08/08 07:29:04;;;;;;;1.73;1.07;;;;;;;23.47;57.98;99187.72;4976272;28;20238;-88
2021/08/08 07:31:45;;;;;;;0.97;0.90;;;;;;;23.57;58.43;99188.25;4960099;28;20271;-87
2021/08/08 07:34:12;;;;;;;0.80;0.80;;;;;;;23.45;59.78;99187.22;4943716;28;20227;-88
2021/08/08 07:36:39;;;;;;;1.10;0.93;;;;;;;23.45;59.27;99187.22;4960215;28;20638;-86
2021/08/08 07:39:06;;;;;;;2.20;1.10;;;;;;;23.48;58.56;99197.53;4992390;28;20549;-87
2021/08/08 07:41:32;;;;;;;0.90;0.90;;;;;;;23.65;58.76;99220.31;4975890;28;20232;-88
2021/08/08 07:43:59;;;;;;;1.20;0.93;;;;;;;23.64;59.00;99212.41;4959796;28;20247;-86
2021/08/08 07:46:26;;;;;;;0.90;0.90;;;;;;;23.92;58.54;99232.94;4976045;28;20237;-86
2021/08/08 07:48:54;;;;;;;0.70;0.70;;;;;;;23.84;59.17;99232.94;4959819;28;20237;-88
2021/08/08 07:51:20;;;;;;;1.33;0.90;;;;;;;23.88;58.60;99237.44;4944167;28;20238;-87
2021/08/08 07:53:48;;;;;;;1.17;0.80;;;;;;;23.86;58.81;99238.88;4992019;28;20686;-89
2021/08/08 07:56:15;;;;;;;1.10;1.00;;;;;;;23.85;58.48;99239.97;4959393;28;20246;-89
2021/08/08 07:58:43;;;;;;;0.90;0.90;;;;;;;23.82;59.77;99246.91;4992167;28;20237;-86
2021/08/08 08:01:10;;;;;;;0.87;0.80;;;;;;;23.84;59.47;99254.81;4943970;28;20343;-90
2021/08/08 08:03:37;;;;;;;1.00;1.00;;;;;;;23.81;60.28;99250.75;4959920;28;20579;-87
2021/08/08 08:06:04;;;;;;;1.93;0.90;;;;;;;23.82;60.56;99262.50;4975351;28;20238;-86
2021/08/08 08:08:31;;;;;;;0.70;0.70;;;;;;;23.76;56.75;99244.63;4975576;28;20234;-91
2021/08/08 08:10:58;;;;;;;0.90;0.90;;;;;;;23.95;58.36;99253.38;4991620;28;20234;-86
2021/08/08 08:13:25;;;;;;;1.30;0.83;;;;;;;24.01;58.64;99252.94;4991616;28;20644;-86
2021/08/08 08:15:51;;;;;;;1.30;1.20;;;;;;;23.86;59.45;99250.63;4943504;28;20587;-86
2021/08/08 08:18:18;;;;;;;1.13;1.03;;;;;;;23.90;59.40;99248.06;4975174;28;20347;-85
2021/08/08 08:20:45;;;;;;;1.73;1.10;;;;;;;23.90;59.22;99246.13;4975435;28;20280;-90
2021/08/08 08:23:12;;;;;;;1.30;0.80;;;;;;;24.06;59.46;99241.03;4959523;28;20248;-88
2021/08/08 08:25:39;;;;;;;1.63;0.80;;;;;;;24.08;58.80;99242.31;4959393;28;20234;-86
2021/08/08 08:28:06;;;;;;;1.03;0.83;;;;;;;23.98;58.85;99244.56;4958541;28;20237;-87
2021/08/08 08:30:33;;;;;;;0.98;0.98;;;;;;;24.06;58.94;99243.78;4959064;28;20531;-87
2021/08/08 08:33:04;;;;;;;0.87;0.87;;;;;;;24.30;58.11;99246.94;4991393;28;20547;-88
2021/08/08 08:35:40;;;;;;;1.13;0.93;;;;;;;24.42;57.87;99246.28;4991657;28;20231;-88
2021/08/08 08:38:08;;;;;;;0.82;0.75;;;;;;;24.40;56.90;99227.44;4974611;28;20229;-87
2021/08/08 08:40:36;;;;;;;2.05;1.00;;;;;;;24.44;56.61;99242.13;4959165;28;20243;-86
2021/08/08 08:43:06;;;;;;;0.90;0.80;;;;;;;24.29;56.62;99247.25;4974886;28;20230;-88
2021/08/08 08:45:35;;;;;;;1.30;0.90;;;;;;;24.55;56.84;99232.47;4959155;28;20542;-87
2021/08/08 08:48:03;;;;;;;0.82;0.82;;;;;;;24.79;57.07;99225.69;4959048;28;20239;-87
2021/08/08 08:50:31;;;;;;;1.10;1.00;;;;;;;24.87;55.71;99224.94;4959142;28;20258;-86
2021/08/08 08:52:58;;;;;;;0.93;0.80;;;;;;;24.90;56.05;99229.75;4943493;28;20231;-88
2021/08/08 08:55:25;;;;;;;0.90;0.90;;;;;;;24.81;56.08;99221.53;4959350;28;20240;-86
2021/08/08 08:57:52;;;;;;;0.70;0.70;;;;;;;24.77;55.69;99220.56;4975473;28;20238;-85
2021/08/08 09:00:22;;;;;;;0.90;0.90;;;;;;;24.77;55.66;99237.00;4959205;28;20287;-87
2021/08/08 09:02:49;;;;;;;0.90;0.90;;;;;;;24.71;55.12;99230.06;4959194;28;20534;-86
2021/08/08 09:05:19;;;;;;;1.17;0.98;;;;;;;24.83;54.26;99240.34;4975410;28;20241;-86
2021/08/08 09:07:46;;;;;;;0.80;0.80;;;;;;;24.85;54.27;99251.81;4959193;28;20702;-86
2021/08/08 09:10:14;;;;;;;0.95;0.88;;;;;;;24.90;53.92;99246.22;4942971;28;20228;-87
2021/08/08 09:12:55;;;;;;;1.10;0.90;;;;;;;24.98;54.38;99278.28;4943946;28;20328;-86
2021/08/08 09:15:34;;;;;;;1.30;0.90;;;;;;;24.93;54.60;99276.50;4975047;28;20232;-87
2021/08/08 09:18:15;;;;;;;1.17;1.08;;;;;;;24.90;55.31;99266.19;4990993;28;20231;-87
2021/08/08 09:20:54;;;;;;;1.25;0.80;;;;;;;24.95;56.04;99266.03;4991363;28;20232;-88
2021/08/08 09:23:21;;;;;;;1.35;0.90;;;;;;;25.06;53.95;99258.28;4959154;28;20567;-86
2021/08/08 09:25:55;;;;;;;1.25;1.15;;;;;;;25.15;55.05;99269.25;4974948;28;20326;-85
2021/08/08 09:28:30;;;;;;;0.95;0.80;;;;;;;25.19;54.09;99264.72;4990265;28;20545;-86
2021/08/08 09:30:58;;;;;;;1.20;0.95;;;;;;;25.10;54.10;99258.44;4943138;28;20330;-84
2021/08/08 09:33:26;;;;;;;0.70;0.70;;;;;;;25.21;54.54;99256.97;4990877;28;20247;-86
2021/08/08 09:35:54;;;;;;;1.33;0.82;;;;;;;25.57;52.49;99260.13;4991053;28;20232;-87
2021/08/08 09:38:21;;;;;;;1.73;0.80;;;;;;;25.69;51.59;99267.69;4974435;28;22416;-85
2021/08/08 09:40:59;;;;;;;1.08;0.98;;;;;;;26.04;50.90;99271.91;4975546;28;20237;-85
2021/08/08 09:43:28;;;;;;;0.90;0.80;;;;;;;26.10;49.64;99267.84;5006750;28;20303;-86
2021/08/08 09:45:55;;;;;;;0.70;0.70;;;;;;;26.23;49.38;99277.81;4941831;28;20240;-84
2021/08/08 09:48:35;;;;;;;1.17;0.85;;;;;;;26.47;48.56;99273.66;4973779;28;20674;-85
2021/08/08 09:51:06;;;;;;;0.80;0.80;;;;;;;26.65;48.29;99275.13;4942539;28;20306;-85
2021/08/08 09:53:33;;;;;;;1.38;0.80;;;;;;;26.64;48.75;99282.56;4974164;28;20687;-85
2021/08/08 09:56:00;;;;;;;2.67;0.90;;;;;;;26.68;47.67;99271.75;4942334;28;20267;-84
2021/08/08 09:58:27;;;;;;;0.98;0.80;;;;;;;26.73;46.70;99275.09;4977751;28;20233;-85
2021/08/08 10:00:58;;;;;;;1.20;0.80;;;;;;;26.82;48.72;99283.28;4978084;28;20628;-86
2021/08/08 10:03:26;;;;;;;0.93;0.93;;;;;;;27.16;47.96;99265.69;4961850;28;20239;-85
2021/08/08 10:05:54;;;;;;;1.20;1.08;;;;;;;27.29;46.90;99266.56;4960955;28;20780;-85
2021/08/08 10:08:23;;;;;;;1.15;0.82;;;;;;;27.39;46.24;99277.16;4977582;28;20245;-85
2021/08/08 10:10:52;;;;;;;1.00;0.70;;;;;;;27.47;46.61;99288.06;4977836;28;20311;-85
2021/08/08 10:13:36;;;;;;;0.90;0.90;;;;;;;27.46;46.26;99293.88;4977453;28;20283;-86
2021/08/08 10:16:09;;;;;;;1.23;0.90;;;;;;;27.41;46.79;99288.59;4945432;28;20230;-84
2021/08/08 10:18:42;;;;;;;1.00;0.90;;;;;;;27.32;47.56;99287.88;4993207;28;20245;-85
2021/08/08 10:21:09;;;;;;;1.38;0.93;;;;;;;27.49;46.62;99269.28;4945889;28;20238;-85
2021/08/08 10:23:37;;;;;;;1.38;0.80;;;;;;;27.83;46.51;99281.03;4961761;28;20231;-85
2021/08/08 10:26:04;;;;;;;1.88;1.00;;;;;;;27.70;46.42;99274.72;4977017;28;20582;-84
2021/08/08 10:28:31;;;;;;;0.80;0.80;;;;;;;27.69;45.42;99278.63;4961566;28;20307;-84
2021/08/08 10:30:59;;;;;;;1.05;1.00;;;;;;;27.55;46.17;99270.69;4945651;28;20304;-85
2021/08/08 10:33:26;;;;;;;1.10;1.00;;;;;;;27.67;46.22;99271.84;4945308;28;20232;-84
2021/08/08 10:35:53;;;;;;;0.88;0.88;;;;;;;27.93;45.42;99267.66;4961275;28;20316;-85
2021/08/08 10:38:20;;;;;;;1.42;1.10;;;;;;;28.45;45.06;99275.25;4992900;28;20230;-84
2021/08/08 10:40:47;;;;;;;1.27;0.90;;;;;;;28.85;42.94;99259.56;4960988;28;20234;-85
2021/08/08 10:43:27;;;;;;;1.70;0.90;;;;;;;29.38;41.69;99263.06;4945166;28;20234;-85
2021/08/08 10:46:11;;;;;;;1.20;1.10;;;;;;;29.17;42.07;99265.97;4977303;28;20269;-83
2021/08/08 10:48:40;;;;;;;2.05;1.08;;;;;;;29.64;41.70;99259.78;4991525;28;20235;-84
2021/08/08 10:51:21;;;;;;;1.23;1.13;;;;;;;30.45;40.00;99261.84;4976126;28;20236;-85
2021/08/08 10:54:06;;;;;;;1.05;0.98;;;;;;;30.73;40.12;99275.50;4992043;28;20236;-84
2021/08/08 10:56:47;;;;;;;1.08;0.98;;;;;;;30.96;39.03;99267.31;5005496;28;20259;-85
2021/08/08 10:59:20;;;;;;;1.17;1.00;;;;;;;31.19;38.45;99265.44;4992377;28;20238;-85
2021/08/08 11:02:06;;;;;;;1.00;0.90;;;;;;;31.46;37.89;99264.38;4949323;28;20233;-85
2021/08/08 11:04:34;;;;;;;1.10;1.00;;;;;;;31.69;37.38;99274.69;4992787;28;20274;-86
2021/08/08 11:07:03;;;;;;;1.10;1.00;;;;;;;31.23;36.85;99271.84;5008934;28;20324;-85
2021/08/08 11:09:31;;;;;;;1.00;1.00;;;;;;;31.18;37.00;99255.53;4945005;28;20636;-83
2021/08/08 11:11:58;;;;;;;1.40;1.10;;;;;;;31.40;37.48;99281.66;4944681;28;20327;-85
2021/08/08 11:14:26;;;;;;;1.65;1.23;;;;;;;31.06;36.65;99277.00;4976044;28;20512;-85
2021/08/08 11:17:01;;;;;;;1.00;0.90;;;;;;;31.23;36.88;99271.03;4961013;28;20267;-85
2021/08/08 11:19:41;;;;;;;1.10;0.93;;;;;;;30.16;38.04;99273.38;5008895;28;20244;-85
2021/08/08 11:22:12;;;;;;;2.67;1.10;;;;;;;30.98;35.68;99263.00;4976302;28;20283;-85
2021/08/08 11:24:41;;;;;;;0.90;0.90;;;;;;;31.73;35.68;99268.03;4992642;28;20252;-86
2021/08/08 11:27:09;;;;;;;1.60;1.10;;;;;;;31.41;35.58;99281.28;4960554;28;20260;-85
2021/08/08 11:29:36;;;;;;;1.20;1.10;;;;;;;31.46;35.77;99272.69;4976662;28;20310;-83
2021/08/08 11:32:06;;;;;;;1.60;0.70;;;;;;;31.53;35.09;99272.03;4975905;28;20228;-85
2021/08/08 11:34:33;;;;;;;0.98;0.88;;;;;;;32.15;33.89;99270.75;4976403;28;20323;-85
2021/08/08 11:37:00;;;;;;;1.95;1.00;;;;;;;32.38;33.97;99262.44;4960596;28;20234;-85
2021/08/08 11:39:32;;;;;;;0.80;0.80;;;;;;;31.43;34.72;99267.09;4976044;28;20549;-85
2021/08/08 11:42:07;;;;;;;1.08;0.90;;;;;;;31.88;33.87;99256.06;4975864;28;20232;-85